Maverick, South Dakota
Current Conditions -  °F | °C
As of 3:53 AM on Tuesday 21 Oct 2014 (Local Time) from KCUT Reporting Station
Clear Clear  
Wind Chill: 52°   Ceiling: Unl
Heat Index: 52°   Visibility: 10mi
Dew Point: 34°   Wind: 7mph
Humidity: 50%   Direction: 260°W
Pressure: 29.98"   Gusts: NA
Location:  43.346°N, 103.483°W
Report Text: KCUT 210953Z AUTO 26006KT 10SM CLR 11/01 A2998 RMK AO2 SLP097 T01110011
Loading
Personal Weather Stations






























Interactive Weather Map
Tropical Storm Tracking
New forecast layout! Learn more

10-Day Weather Forecast

Advertisements
Track Severe Weather on mobile